createdAt,value
2023-12-05T00:02:00.825Z,7.67
2023-12-05T00:04:47.536Z,5.60
2023-12-05T00:07:34.125Z,6.37
2023-12-05T00:10:22.232Z,6.70
2023-12-05T00:13:09.454Z,6.83
2023-12-05T00:15:56.311Z,7.83
2023-12-05T00:18:45.600Z,5.40
2023-12-05T00:21:32.567Z,7.40
2023-12-05T00:24:19.143Z,7.07
2023-12-05T00:27:07.086Z,6.37
2023-12-05T00:29:53.521Z,6.40
2023-12-05T00:32:40.036Z,7.10
2023-12-05T00:35:26.965Z,8.13
2023-12-05T00:38:13.560Z,6.00
2023-12-05T00:41:01.954Z,6.60
2023-12-05T00:43:50.123Z,7.37
2023-12-05T00:46:36.833Z,7.33
2023-12-05T00:49:23.439Z,6.47
2023-12-05T00:52:10.194Z,7.10
2023-12-05T00:54:56.730Z,6.60
2023-12-05T00:57:43.710Z,6.33
2023-12-05T01:00:31.553Z,7.07
2023-12-05T01:03:20.777Z,6.17
2023-12-05T01:06:08.510Z,7.17
2023-12-05T01:08:54.995Z,6.37
2023-12-05T01:11:41.959Z,6.83
2023-12-05T01:14:28.711Z,6.57
2023-12-05T01:17:17.596Z,6.73
2023-12-05T01:20:07.982Z,7.97
2023-12-05T01:22:54.665Z,6.43
2023-12-05T01:25:41.235Z,9.70
2023-12-05T01:28:27.724Z,5.33
2023-12-05T01:31:14.036Z,6.67
2023-12-05T01:34:01.889Z,8.50
2023-12-05T01:36:48.539Z,7.23
2023-12-05T01:39:35.058Z,8.10
2023-12-05T01:42:21.577Z,6.83
2023-12-05T01:45:09.706Z,6.53
2023-12-05T01:47:57.434Z,6.37
2023-12-05T01:50:45.965Z,7.67
2023-12-05T01:53:34.131Z,7.63
2023-12-05T01:56:21.301Z,7.63
2023-12-05T01:59:08.338Z,9.03
2023-12-05T02:01:55.393Z,7.03
2023-12-05T02:04:42.407Z,6.87
2023-12-05T02:07:31.043Z,6.53
2023-12-05T02:10:17.717Z,7.97
2023-12-05T02:13:04.755Z,7.73
2023-12-05T02:15:57.170Z,7.90
2023-12-05T02:18:52.300Z,8.83
2023-12-05T02:21:42.894Z,8.50
2023-12-05T02:24:41.539Z,8.00
2023-12-05T02:27:39.261Z,8.43
2023-12-05T02:30:27.886Z,8.77
2023-12-05T02:33:14.697Z,7.60
2023-12-05T02:36:10.228Z,9.30
2023-12-05T02:39:08.607Z,8.70
2023-12-05T02:41:57.979Z,10.27
2023-12-05T02:44:51.414Z,9.87
2023-12-05T02:47:40.384Z,9.47
2023-12-05T02:50:27.136Z,8.87
2023-12-05T02:53:13.616Z,9.43
2023-12-05T02:56:00.198Z,9.83
2023-12-05T02:58:46.919Z,9.80
2023-12-05T03:01:40.067Z,8.97
2023-12-05T03:04:27.336Z,10.03
2023-12-05T03:07:14.010Z,8.20
2023-12-05T03:10:00.625Z,8.43
2023-12-05T03:12:47.330Z,8.03
2023-12-05T03:15:34.147Z,8.93
2023-12-05T03:18:22.327Z,8.50
2023-12-05T03:21:09.468Z,9.90
2023-12-05T03:23:56.072Z,10.33
2023-12-05T03:26:42.516Z,9.50
2023-12-05T03:29:29.115Z,12.20
2023-12-05T03:32:16.685Z,9.77
2023-12-05T03:35:04.940Z,11.37
2023-12-05T03:37:51.776Z,12.87
2023-12-05T03:40:38.798Z,12.07
2023-12-05T03:43:25.434Z,10.57
2023-12-05T03:46:13.641Z,9.37
2023-12-05T03:49:00.687Z,10.30
2023-12-05T03:51:48.782Z,11.10
2023-12-05T03:54:35.260Z,9.13
2023-12-05T03:57:21.784Z,13.30
2023-12-05T04:00:11.158Z,10.10
2023-12-05T04:02:57.696Z,9.13
2023-12-05T04:05:44.451Z,11.50
2023-12-05T04:08:32.428Z,9.87
2023-12-05T04:11:19.503Z,10.50
2023-12-05T04:14:06.557Z,10.47
2023-12-05T04:16:53.197Z,11.87
2023-12-05T04:19:40.687Z,10.33
2023-12-05T04:22:27.726Z,12.67
2023-12-05T04:25:17.135Z,10.67
2023-12-05T04:28:03.950Z,10.30
2023-12-05T04:30:50.446Z,10.10
2023-12-05T04:33:37.091Z,11.57
2023-12-05T04:36:25.374Z,13.23
2023-12-05T04:39:12.189Z,11.03
2023-12-05T04:42:00.041Z,12.30
2023-12-05T04:44:47.799Z,10.53
2023-12-05T04:47:34.168Z,11.50
2023-12-05T04:50:20.690Z,11.13
2023-12-05T04:53:07.217Z,10.83
2023-12-05T04:55:53.752Z,12.80
2023-12-05T04:58:41.781Z,12.63
2023-12-05T05:01:28.414Z,10.93
2023-12-05T05:04:15.038Z,11.67
2023-12-05T05:07:01.930Z,10.87
2023-12-05T05:09:48.933Z,13.50
2023-12-05T05:12:35.421Z,11.93
2023-12-05T05:15:23.102Z,11.97
2023-12-05T05:18:09.622Z,10.50
2023-12-05T05:20:56.174Z,11.40
2023-12-05T05:23:42.699Z,12.83
2023-12-05T05:26:28.954Z,11.90
2023-12-05T05:29:15.483Z,12.77
2023-12-05T05:32:03.293Z,12.00
2023-12-05T05:34:49.992Z,13.37
2023-12-05T05:37:36.500Z,13.17
2023-12-05T05:40:23.412Z,12.47
2023-12-05T05:43:10.076Z,12.87
2023-12-05T05:45:56.575Z,12.10
2023-12-05T05:48:44.704Z,12.17
2023-12-05T05:51:31.481Z,12.77
2023-12-05T05:54:18.219Z,16.23
2023-12-05T05:57:05.414Z,12.93
2023-12-05T05:59:52.045Z,15.20
2023-12-05T06:02:38.902Z,14.73
2023-12-05T06:05:26.822Z,11.80
2023-12-05T06:08:13.100Z,13.20
2023-12-05T06:10:59.472Z,15.60
2023-12-05T06:13:46.117Z,14.53
2023-12-05T06:16:32.672Z,15.97
2023-12-05T06:19:19.260Z,14.60
2023-12-05T06:22:07.301Z,12.13
2023-12-05T06:24:53.874Z,13.77
2023-12-05T06:27:40.601Z,12.57
2023-12-05T06:30:27.798Z,11.90
2023-12-05T06:33:14.847Z,13.43
2023-12-05T06:36:01.654Z,15.40
2023-12-05T06:38:49.636Z,12.50
2023-12-05T06:41:37.459Z,13.37
2023-12-05T06:44:23.952Z,14.33
2023-12-05T06:47:10.533Z,13.77
2023-12-05T06:50:01.078Z,13.97
2023-12-05T06:52:47.523Z,16.27
2023-12-05T06:55:35.914Z,14.40
2023-12-05T06:58:23.261Z,14.20
2023-12-05T07:01:10.024Z,14.07
2023-12-05T07:03:57.557Z,14.97
2023-12-05T07:06:45.307Z,14.97
2023-12-05T07:09:34.205Z,15.70
2023-12-05T07:12:22.620Z,15.37
2023-12-05T07:15:11.162Z,15.20
2023-12-05T07:17:57.792Z,13.07
2023-12-05T07:20:44.832Z,14.73
2023-12-05T07:23:32.197Z,13.03
2023-12-05T07:26:18.968Z,14.90
2023-12-05T07:29:07.714Z,13.60
2023-12-05T07:31:54.727Z,14.00
2023-12-05T07:34:44.322Z,14.57
2023-12-05T07:37:31.208Z,16.00
2023-12-05T07:40:18.531Z,14.90
2023-12-05T07:43:05.292Z,13.90
2023-12-05T07:45:53.151Z,15.30
2023-12-05T07:48:40.101Z,13.43
2023-12-05T07:51:28.567Z,12.97
2023-12-05T07:54:15.032Z,13.67
2023-12-05T07:57:01.655Z,13.00
2023-12-05T07:59:48.249Z,15.53
2023-12-05T08:02:36.133Z,13.73
2023-12-05T08:05:22.795Z,13.17
2023-12-05T08:08:09.262Z,14.30
2023-12-05T08:10:55.689Z,14.13
2023-12-05T08:13:42.711Z,12.53
2023-12-05T08:16:29.217Z,14.47
2023-12-05T08:19:17.603Z,13.97
2023-12-05T08:22:04.672Z,14.50
2023-12-05T08:24:51.849Z,13.03
2023-12-05T08:27:38.473Z,14.13
2023-12-05T08:30:25.004Z,14.73
2023-12-05T08:33:11.976Z,11.20
2023-12-05T08:36:00.000Z,14.57
2023-12-05T08:38:46.765Z,12.27
2023-12-05T08:41:33.515Z,13.50
2023-12-05T08:44:20.913Z,11.77
2023-12-05T08:47:07.597Z,13.20
2023-12-05T08:49:53.983Z,13.43
2023-12-05T08:52:42.444Z,14.83
2023-12-05T08:55:28.801Z,11.90
2023-12-05T08:58:15.454Z,11.30
2023-12-05T09:01:01.935Z,12.37
2023-12-05T09:03:50.960Z,13.60
2023-12-05T09:06:38.001Z,12.47
2023-12-05T09:09:26.369Z,13.93
2023-12-05T09:12:13.138Z,11.40
2023-12-05T09:14:59.836Z,11.67
2023-12-05T09:17:46.847Z,14.67
2023-12-05T09:20:33.881Z,16.83
2023-12-05T09:23:20.377Z,12.70
2023-12-05T09:26:08.445Z,14.47
2023-12-05T09:28:55.083Z,13.70
2023-12-05T09:31:41.539Z,12.27
2023-12-05T09:34:28.139Z,13.43
2023-12-05T09:37:15.256Z,10.87
2023-12-05T09:40:02.106Z,12.00
2023-12-05T09:42:50.741Z,13.23
2023-12-05T09:45:40.908Z,13.30
2023-12-05T09:48:29.655Z,12.93
2023-12-05T09:51:17.845Z,10.53
2023-12-05T09:54:05.292Z,11.97
2023-12-05T09:56:52.451Z,11.23
2023-12-05T09:59:41.019Z,12.33
2023-12-05T10:02:28.944Z,13.43
2023-12-05T10:05:17.658Z,12.27
2023-12-05T10:08:05.046Z,12.60
2023-12-05T10:10:55.780Z,12.37
2023-12-05T10:13:42.871Z,12.37
2023-12-05T10:16:32.419Z,11.87
2023-12-05T10:19:20.529Z,13.60
2023-12-05T10:22:07.773Z,12.77
2023-12-05T10:24:56.773Z,10.97
2023-12-05T10:27:43.402Z,11.30
2023-12-05T10:30:34.394Z,10.17
2023-12-05T10:33:23.683Z,12.47
2023-12-05T10:36:14.630Z,11.43
2023-12-05T10:39:04.039Z,11.47
2023-12-05T10:41:50.546Z,10.60
2023-12-05T10:44:40.668Z,13.83
2023-12-05T10:47:28.155Z,13.97
2023-12-05T10:50:16.813Z,13.90
2023-12-05T10:53:03.492Z,12.30
2023-12-05T10:55:50.342Z,13.20
2023-12-05T10:58:38.253Z,12.47
2023-12-05T11:01:25.991Z,11.03
2023-12-05T11:04:13.294Z,10.43
2023-12-05T11:07:01.600Z,12.67
2023-12-05T11:09:49.382Z,14.13
2023-12-05T11:12:36.905Z,13.37
2023-12-05T11:15:26.321Z,14.77
2023-12-05T11:18:18.801Z,13.03
2023-12-05T11:21:20.817Z,12.83
2023-12-05T11:24:39.009Z,14.17
2023-12-05T11:27:41.654Z,13.17
2023-12-05T11:30:53.704Z,11.43
2023-12-05T11:34:09.487Z,13.77
2023-12-05T11:37:07.473Z,15.30
2023-12-05T11:39:55.808Z,15.50
2023-12-05T11:43:07.074Z,14.13
2023-12-05T11:46:00.110Z,12.17
2023-12-05T11:48:46.871Z,14.80
2023-12-05T11:51:33.984Z,13.30
2023-12-05T11:54:23.715Z,14.10
2023-12-05T11:57:19.850Z,12.43
2023-12-05T12:00:09.167Z,12.87
2023-12-05T12:02:59.503Z,14.07
2023-12-05T12:05:49.396Z,12.57
2023-12-05T12:08:35.927Z,12.50
2023-12-05T12:11:23.389Z,13.67
2023-12-05T12:14:15.926Z,12.93
2023-12-05T12:17:06.539Z,13.70
2023-12-05T12:19:55.190Z,13.03
2023-12-05T12:22:43.075Z,13.70
2023-12-05T12:25:29.820Z,12.33
2023-12-05T12:28:26.465Z,13.67
2023-12-05T12:31:26.672Z,13.57
2023-12-05T12:34:23.571Z,12.63
2023-12-05T12:37:18.173Z,13.10
2023-12-05T12:40:10.155Z,14.37
2023-12-05T12:42:57.705Z,13.63
2023-12-05T12:45:45.058Z,17.17
2023-12-05T12:48:33.088Z,13.53
2023-12-05T12:51:20.430Z,16.03
2023-12-05T12:54:07.562Z,12.43
2023-12-05T12:56:55.582Z,13.83
2023-12-05T12:59:43.428Z,13.17
2023-12-05T13:02:32.868Z,11.73
2023-12-05T13:05:20.994Z,12.60
2023-12-05T13:08:09.784Z,16.40
2023-12-05T13:10:57.558Z,12.77
2023-12-05T13:13:44.600Z,13.27
2023-12-05T13:16:31.202Z,12.30
2023-12-05T13:19:30.636Z,18.83
2023-12-05T13:22:21.257Z,14.83
2023-12-05T13:25:09.710Z,12.10
2023-12-05T13:27:56.441Z,12.73
2023-12-05T13:30:43.798Z,14.23
2023-12-05T13:33:30.464Z,12.53
2023-12-05T13:36:17.826Z,11.87
2023-12-05T13:39:08.231Z,14.80
2023-12-05T13:41:56.170Z,12.50
2023-12-05T13:44:44.250Z,12.97
2023-12-05T13:47:30.904Z,13.00
2023-12-05T13:50:17.903Z,14.57
2023-12-05T13:53:04.958Z,13.40
2023-12-05T13:55:53.054Z,13.20
2023-12-05T13:58:39.978Z,13.10
2023-12-05T14:01:26.970Z,11.70
2023-12-05T14:04:13.994Z,12.13
2023-12-05T14:07:00.741Z,11.87
2023-12-05T14:09:47.199Z,11.50
2023-12-05T14:12:35.100Z,10.77
2023-12-05T14:15:25.046Z,10.23
2023-12-05T14:18:12.633Z,12.30
2023-12-05T14:21:01.038Z,11.90
2023-12-05T14:23:48.037Z,12.57
2023-12-05T14:26:34.463Z,11.27
2023-12-05T14:29:23.770Z,9.90
2023-12-05T14:32:10.186Z,11.07
2023-12-05T14:34:56.815Z,9.87
2023-12-05T14:37:43.964Z,11.20
2023-12-05T14:40:31.626Z,9.93
2023-12-05T14:43:18.381Z,13.40
2023-12-05T14:46:07.715Z,10.40
2023-12-05T14:48:54.598Z,9.77
2023-12-05T14:51:41.117Z,11.13
2023-12-05T14:54:30.336Z,10.57
2023-12-05T14:57:17.185Z,11.70
2023-12-05T15:00:04.180Z,9.77
2023-12-05T15:02:52.144Z,12.17
2023-12-05T15:05:38.900Z,9.90
2023-12-05T15:08:25.517Z,10.13
2023-12-05T15:11:11.984Z,9.30
2023-12-05T15:13:58.441Z,7.27
2023-12-05T15:16:46.104Z,7.23
2023-12-05T15:19:34.343Z,8.60
2023-12-05T15:22:21.334Z,8.07
2023-12-05T15:25:08.863Z,8.70
2023-12-05T15:27:55.789Z,7.97
2023-12-05T15:30:42.314Z,10.67
2023-12-05T15:33:29.058Z,11.50
2023-12-05T15:36:17.157Z,10.00
2023-12-05T15:39:04.295Z,10.20
2023-12-05T15:41:50.830Z,10.80
2023-12-05T15:44:37.528Z,13.43
2023-12-05T15:47:24.006Z,10.07
2023-12-05T15:50:11.526Z,9.93
2023-12-05T15:53:00.042Z,10.10
2023-12-05T15:55:46.621Z,11.67
2023-12-05T15:58:33.160Z,8.00
2023-12-05T16:01:19.723Z,9.10
2023-12-05T16:04:07.132Z,9.47
2023-12-05T16:06:53.619Z,14.47
2023-12-05T16:09:41.567Z,8.30
2023-12-05T16:12:28.305Z,8.00
2023-12-05T16:15:14.774Z,10.13
2023-12-05T16:18:01.763Z,6.03
2023-12-05T16:20:49.709Z,7.37
2023-12-05T16:23:39.014Z,6.73
2023-12-05T16:26:29.494Z,7.13
2023-12-05T16:29:15.931Z,9.10
2023-12-05T16:32:03.591Z,7.33
2023-12-05T16:34:51.336Z,8.03
2023-12-05T16:37:38.517Z,8.70
2023-12-05T16:40:25.146Z,11.83
2023-12-05T16:43:12.927Z,12.67
2023-12-05T16:45:59.582Z,10.80
2023-12-05T16:48:46.272Z,11.60
2023-12-05T16:51:33.285Z,9.83
2023-12-05T16:54:19.829Z,10.40
2023-12-05T16:57:06.828Z,13.90
2023-12-05T16:59:54.838Z,9.67
2023-12-05T17:02:41.228Z,11.67
2023-12-05T17:05:27.704Z,11.47
2023-12-05T17:08:14.083Z,12.97
2023-12-05T17:11:03.647Z,12.90
2023-12-05T17:13:50.029Z,12.63
2023-12-05T17:16:37.973Z,11.73
2023-12-05T17:19:24.454Z,13.03
2023-12-05T17:22:10.911Z,12.13
2023-12-05T17:24:57.960Z,12.50
2023-12-05T17:27:45.056Z,12.73
2023-12-05T17:30:34.965Z,13.83
2023-12-05T17:33:23.634Z,13.00
2023-12-05T17:36:11.012Z,11.43
2023-12-05T17:38:57.497Z,11.17
2023-12-05T17:41:44.243Z,11.03
2023-12-05T17:44:31.272Z,11.83
2023-12-05T17:47:18.080Z,12.23
2023-12-05T17:50:07.151Z,8.93
2023-12-05T17:52:54.619Z,9.20
2023-12-05T17:55:41.427Z,10.73
2023-12-05T17:58:28.085Z,9.30
2023-12-05T18:01:15.153Z,10.13
2023-12-05T18:04:02.069Z,9.67
2023-12-05T18:06:50.801Z,10.70
2023-12-05T18:09:39.717Z,9.47
2023-12-05T18:12:26.331Z,8.87
2023-12-05T18:15:13.382Z,10.13
2023-12-05T18:18:01.123Z,11.87
2023-12-05T18:20:47.809Z,11.00
2023-12-05T18:23:36.524Z,9.77
2023-12-05T18:26:23.036Z,10.77
2023-12-05T18:29:10.125Z,12.10
2023-12-05T18:31:56.600Z,12.23
2023-12-05T18:34:43.101Z,13.63
2023-12-05T18:37:29.643Z,13.70
2023-12-05T18:40:17.857Z,14.43
2023-12-05T18:43:04.495Z,13.43
2023-12-05T18:45:51.688Z,13.20
2023-12-05T18:48:38.503Z,15.80
2023-12-05T18:51:24.976Z,18.83
2023-12-05T18:54:12.687Z,12.73
2023-12-05T18:57:00.599Z,11.37
2023-12-05T18:59:47.334Z,11.07
2023-12-05T19:02:33.952Z,11.70
2023-12-05T19:05:20.551Z,11.50
2023-12-05T19:08:07.277Z,10.00
2023-12-05T19:10:54.215Z,8.67
2023-12-05T19:13:42.355Z,11.27
2023-12-05T19:16:29.214Z,13.83
2023-12-05T19:19:15.830Z,14.30
2023-12-05T19:22:04.920Z,12.70
2023-12-05T19:24:51.502Z,13.70
2023-12-05T19:27:38.517Z,10.60
2023-12-05T19:30:26.472Z,26.20
2023-12-05T19:33:13.338Z,10.97
2023-12-05T19:35:59.698Z,9.47
2023-12-05T19:38:46.390Z,11.50
2023-12-05T19:41:34.168Z,10.23
2023-12-05T19:44:20.604Z,9.90
2023-12-05T19:47:08.685Z,8.33
2023-12-05T19:49:55.388Z,10.80
2023-12-05T19:52:41.721Z,9.33
2023-12-05T19:55:28.208Z,9.40
2023-12-05T19:58:16.369Z,7.83
2023-12-05T20:01:03.185Z,9.97
2023-12-05T20:03:51.384Z,10.47
2023-12-05T20:06:38.052Z,9.20
2023-12-05T20:09:25.112Z,9.30
2023-12-05T20:12:11.820Z,9.13
2023-12-05T20:14:58.428Z,8.97
2023-12-05T20:17:44.920Z,8.80
2023-12-05T20:20:32.790Z,9.40
2023-12-05T20:23:21.038Z,10.17
2023-12-05T20:26:08.668Z,8.73
2023-12-05T20:28:55.256Z,10.83
2023-12-05T20:31:42.048Z,9.47
2023-12-05T20:34:29.017Z,8.10
2023-12-05T20:37:17.527Z,8.20
2023-12-05T20:40:06.200Z,8.23
2023-12-05T20:42:53.135Z,8.30
2023-12-05T20:45:41.104Z,8.70
2023-12-05T20:48:28.855Z,9.47
2023-12-05T20:51:16.349Z,7.53
2023-12-05T20:54:04.523Z,8.03
2023-12-05T20:56:51.347Z,7.40
2023-12-05T20:59:40.343Z,9.27
2023-12-05T21:02:27.867Z,8.27
2023-12-05T21:05:14.675Z,9.83
2023-12-05T21:08:02.244Z,8.67
2023-12-05T21:10:49.981Z,9.40
2023-12-05T21:13:36.617Z,8.83
2023-12-05T21:16:23.313Z,9.87
2023-12-05T21:19:11.156Z,12.63
2023-12-05T21:22:00.817Z,9.00
2023-12-05T21:24:47.453Z,8.10
2023-12-05T21:27:35.412Z,10.17
2023-12-05T21:30:22.149Z,10.30
2023-12-05T21:33:08.798Z,9.17
2023-12-05T21:35:55.355Z,9.90
2023-12-05T21:38:41.850Z,10.50
2023-12-05T21:41:28.530Z,10.90
2023-12-05T21:44:16.755Z,11.37
2023-12-05T21:47:03.378Z,9.63
2023-12-05T21:49:49.959Z,9.90
2023-12-05T21:52:36.700Z,10.27
2023-12-05T21:55:23.197Z,12.60
2023-12-05T21:58:10.793Z,11.00
2023-12-05T22:00:59.129Z,9.87
2023-12-05T22:03:45.955Z,9.60
2023-12-05T22:06:32.450Z,11.17
2023-12-05T22:09:18.831Z,10.47
2023-12-05T22:12:06.120Z,10.50
2023-12-05T22:14:52.829Z,9.57
2023-12-05T22:17:40.980Z,14.03
2023-12-05T22:20:27.663Z,10.67
2023-12-05T22:23:14.593Z,13.90
2023-12-05T22:26:01.950Z,13.80
2023-12-05T22:28:48.375Z,12.30
2023-12-05T22:31:34.969Z,14.80
2023-12-05T22:34:23.153Z,11.40
2023-12-05T22:37:10.233Z,7.50
2023-12-05T22:39:56.779Z,5.83
2023-12-05T22:42:43.176Z,6.67
2023-12-05T22:45:29.804Z,5.20
2023-12-05T22:48:16.317Z,6.73
2023-12-05T22:51:07.323Z,6.43
2023-12-05T22:53:54.109Z,6.87
2023-12-05T22:56:40.817Z,5.40
2023-12-05T22:59:27.305Z,7.30
2023-12-05T23:02:13.737Z,7.57
2023-12-05T23:05:00.276Z,8.83
2023-12-05T23:07:49.720Z,9.30
2023-12-05T23:10:36.593Z,9.00
2023-12-05T23:13:23.415Z,8.73
2023-12-05T23:16:10.807Z,7.63
2023-12-05T23:18:57.299Z,13.33
2023-12-05T23:21:43.754Z,12.87
2023-12-05T23:24:31.640Z,9.43
2023-12-05T23:27:18.265Z,9.13
2023-12-05T23:30:06.050Z,10.87
2023-12-05T23:32:52.836Z,11.57
2023-12-05T23:35:39.843Z,9.40
2023-12-05T23:38:26.487Z,10.23
2023-12-05T23:41:15.571Z,11.67
2023-12-05T23:44:02.282Z,10.27
2023-12-05T23:46:48.799Z,11.80
2023-12-05T23:49:35.451Z,12.23
2023-12-05T23:52:22.111Z,10.87
2023-12-05T23:55:09.844Z,9.20
2023-12-05T23:57:57.618Z,10.63
